sensor_id;sensor_type;location;lat;lon;timestamp;temperature;humidity
50586;DHT22;36542;51.700;8.846;2023-12-28T00:01:22;9.60;99.90
50586;DHT22;36542;51.700;8.846;2023-12-28T00:03:48;9.50;99.90
50586;DHT22;36542;51.700;8.846;2023-12-28T00:06:14;9.40;99.90
50586;DHT22;36542;51.700;8.846;2023-12-28T00:08:40;9.30;99.90
50586;DHT22;36542;51.700;8.846;2023-12-28T00:11:05;9.30;99.90
50586;DHT22;36542;51.700;8.846;2023-12-28T00:13:31;9.20;99.90
50586;DHT22;36542;51.700;8.846;2023-12-28T00:15:56;9.10;99.90
50586;DHT22;36542;51.700;8.846;2023-12-28T00:18:22;9.10;99.90
50586;DHT22;36542;51.700;8.846;2023-12-28T00:20:47;9.00;99.90
50586;DHT22;36542;51.700;8.846;2023-12-28T00:23:13;9.00;99.90
50586;DHT22;36542;51.700;8.846;2023-12-28T00:25:38;9.00;99.90
50586;DHT22;36542;51.700;8.846;2023-12-28T00:28:04;9.00;99.90
50586;DHT22;36542;51.700;8.846;2023-12-28T00:30:29;8.90;99.90
50586;DHT22;36542;51.700;8.846;2023-12-28T00:32:55;8.80;99.90
50586;DHT22;36542;51.700;8.846;2023-12-28T00:35:20;8.70;99.90
50586;DHT22;36542;51.700;8.846;2023-12-28T00:37:46;8.70;99.90
50586;DHT22;36542;51.700;8.846;2023-12-28T00:40:11;8.60;99.90
50586;DHT22;36542;51.700;8.846;2023-12-28T00:42:37;8.60;99.90
50586;DHT22;36542;51.700;8.846;2023-12-28T00:45:06;8.60;99.90
50586;DHT22;36542;51.700;8.846;2023-12-28T00:47:32;8.60;99.90
50586;DHT22;36542;51.700;8.846;2023-12-28T00:49:57;8.50;99.90
50586;DHT22;36542;51.700;8.846;2023-12-28T00:52:23;8.50;99.90
50586;DHT22;36542;51.700;8.846;2023-12-28T00:54:48;8.40;99.90
50586;DHT22;36542;51.700;8.846;2023-12-28T00:57:14;8.30;99.90
50586;DHT22;36542;51.700;8.846;2023-12-28T00:59:39;8.20;99.90
50586;DHT22;36542;51.700;8.846;2023-12-28T01:02:06;8.10;99.90
50586;DHT22;36542;51.700;8.846;2023-12-28T01:04:31;8.10;99.90
50586;DHT22;36542;51.700;8.846;2023-12-28T01:06:56;8.10;99.90
50586;DHT22;36542;51.700;8.846;2023-12-28T01:09:23;8.00;99.90
50586;DHT22;36542;51.700;8.846;2023-12-28T01:11:49;7.90;99.90
50586;DHT22;36542;51.700;8.846;2023-12-28T01:14:15;7.90;99.90
50586;DHT22;36542;51.700;8.846;2023-12-28T01:16:40;7.90;99.90
50586;DHT22;36542;51.700;8.846;2023-12-28T01:19:06;7.90;99.90
50586;DHT22;36542;51.700;8.846;2023-12-28T01:21:32;8.00;99.90
50586;DHT22;36542;51.700;8.846;2023-12-28T01:23:58;8.00;99.90
50586;DHT22;36542;51.700;8.846;2023-12-28T01:26:23;8.00;99.90
50586;DHT22;36542;51.700;8.846;2023-12-28T01:28:49;8.00;99.90
50586;DHT22;36542;51.700;8.846;2023-12-28T01:31:14;8.00;99.90
50586;DHT22;36542;51.700;8.846;2023-12-28T01:33:40;8.00;99.90
50586;DHT22;36542;51.700;8.846;2023-12-28T01:36:18;8.20;99.90
50586;DHT22;36542;51.700;8.846;2023-12-28T01:38:44;8.20;99.90
50586;DHT22;36542;51.700;8.846;2023-12-28T01:41:10;8.20;99.90
50586;DHT22;36542;51.700;8.846;2023-12-28T01:43:35;8.20;99.90
50586;DHT22;36542;51.700;8.846;2023-12-28T01:46:01;8.30;99.90
50586;DHT22;36542;51.700;8.846;2023-12-28T01:48:27;8.20;99.90
50586;DHT22;36542;51.700;8.846;2023-12-28T01:50:54;8.20;99.90
50586;DHT22;36542;51.700;8.846;2023-12-28T01:53:19;8.20;99.90
50586;DHT22;36542;51.700;8.846;2023-12-28T01:55:45;8.20;99.90
50586;DHT22;36542;51.700;8.846;2023-12-28T01:58:11;8.30;99.90
50586;DHT22;36542;51.700;8.846;2023-12-28T02:00:37;8.30;99.90
50586;DHT22;36542;51.700;8.846;2023-12-28T02:03:05;8.30;99.90
50586;DHT22;36542;51.700;8.846;2023-12-28T02:05:32;8.30;99.90
50586;DHT22;36542;51.700;8.846;2023-12-28T02:07:57;8.20;99.90
50586;DHT22;36542;51.700;8.846;2023-12-28T02:10:23;8.20;99.90
50586;DHT22;36542;51.700;8.846;2023-12-28T02:12:48;8.20;99.90
50586;DHT22;36542;51.700;8.846;2023-12-28T02:15:15;8.20;99.90
50586;DHT22;36542;51.700;8.846;2023-12-28T02:17:49;8.30;99.90
50586;DHT22;36542;51.700;8.846;2023-12-28T02:20:18;8.40;99.90
50586;DHT22;36542;51.700;8.846;2023-12-28T02:22:45;8.40;99.90
50586;DHT22;36542;51.700;8.846;2023-12-28T02:25:12;8.40;99.90
50586;DHT22;36542;51.700;8.846;2023-12-28T02:27:47;8.40;99.90
50586;DHT22;36542;51.700;8.846;2023-12-28T02:30:17;8.40;99.90
50586;DHT22;36542;51.700;8.846;2023-12-28T02:35:33;8.40;99.90
50586;DHT22;36542;51.700;8.846;2023-12-28T02:38:02;8.40;99.90
50586;DHT22;36542;51.700;8.846;2023-12-28T02:40:33;8.40;99.90
50586;DHT22;36542;51.700;8.846;2023-12-28T02:43:01;8.40;99.90
50586;DHT22;36542;51.700;8.846;2023-12-28T02:45:26;8.50;99.90
50586;DHT22;36542;51.700;8.846;2023-12-28T02:47:52;8.40;99.90
50586;DHT22;36542;51.700;8.846;2023-12-28T02:50:17;8.40;99.90
50586;DHT22;36542;51.700;8.846;2023-12-28T02:52:43;8.40;99.90
50586;DHT22;36542;51.700;8.846;2023-12-28T02:55:08;8.30;99.90
50586;DHT22;36542;51.700;8.846;2023-12-28T02:57:34;8.30;99.90
50586;DHT22;36542;51.700;8.846;2023-12-28T03:00:04;8.40;99.90
50586;DHT22;36542;51.700;8.846;2023-12-28T03:02:29;8.30;99.90
50586;DHT22;36542;51.700;8.846;2023-12-28T03:04:55;8.40;99.90
50586;DHT22;36542;51.700;8.846;2023-12-28T03:07:20;8.40;99.90
50586;DHT22;36542;51.700;8.846;2023-12-28T03:09:46;8.40;99.90
50586;DHT22;36542;51.700;8.846;2023-12-28T03:12:11;8.50;99.90
50586;DHT22;36542;51.700;8.846;2023-12-28T03:14:37;8.50;99.90
50586;DHT22;36542;51.700;8.846;2023-12-28T03:17:03;8.50;99.90
50586;DHT22;36542;51.700;8.846;2023-12-28T03:19:28;8.40;99.90
50586;DHT22;36542;51.700;8.846;2023-12-28T03:21:54;8.40;99.90
50586;DHT22;36542;51.700;8.846;2023-12-28T03:24:19;8.40;99.90
50586;DHT22;36542;51.700;8.846;2023-12-28T03:26:45;8.30;99.90
50586;DHT22;36542;51.700;8.846;2023-12-28T03:29:10;8.30;99.90
50586;DHT22;36542;51.700;8.846;2023-12-28T03:31:40;8.20;99.90
50586;DHT22;36542;51.700;8.846;2023-12-28T03:34:06;8.20;99.90
50586;DHT22;36542;51.700;8.846;2023-12-28T03:36:31;8.20;99.90
50586;DHT22;36542;51.700;8.846;2023-12-28T03:38:57;8.20;99.90
50586;DHT22;36542;51.700;8.846;2023-12-28T03:41:22;8.20;99.90
50586;DHT22;36542;51.700;8.846;2023-12-28T03:43:48;8.20;99.90
50586;DHT22;36542;51.700;8.846;2023-12-28T03:46:13;8.20;99.90
50586;DHT22;36542;51.700;8.846;2023-12-28T03:48:39;8.20;99.90
50586;DHT22;36542;51.700;8.846;2023-12-28T03:51:05;8.20;99.90
50586;DHT22;36542;51.700;8.846;2023-12-28T03:53:30;8.20;99.90
50586;DHT22;36542;51.700;8.846;2023-12-28T03:55:59;8.20;99.90
50586;DHT22;36542;51.700;8.846;2023-12-28T03:58:25;8.10;99.90
50586;DHT22;36542;51.700;8.846;2023-12-28T04:00:50;8.10;99.90
50586;DHT22;36542;51.700;8.846;2023-12-28T04:03:16;8.10;99.90
50586;DHT22;36542;51.700;8.846;2023-12-28T04:05:43;8.00;99.90
50586;DHT22;36542;51.700;8.846;2023-12-28T04:08:09;8.00;99.90
50586;DHT22;36542;51.700;8.846;2023-12-28T04:10:34;7.90;99.90
50586;DHT22;36542;51.700;8.846;2023-12-28T04:13:02;7.90;99.90
50586;DHT22;36542;51.700;8.846;2023-12-28T04:15:27;7.90;99.90
50586;DHT22;36542;51.700;8.846;2023-12-28T04:17:53;7.90;99.90
50586;DHT22;36542;51.700;8.846;2023-12-28T04:20:18;7.90;99.90
50586;DHT22;36542;51.700;8.846;2023-12-28T04:22:44;7.90;99.90
50586;DHT22;36542;51.700;8.846;2023-12-28T04:25:10;7.80;99.90
50586;DHT22;36542;51.700;8.846;2023-12-28T04:27:36;7.80;99.90
50586;DHT22;36542;51.700;8.846;2023-12-28T04:30:01;7.80;99.90
50586;DHT22;36542;51.700;8.846;2023-12-28T04:32:27;7.70;99.90
50586;DHT22;36542;51.700;8.846;2023-12-28T04:34:53;7.70;99.90
50586;DHT22;36542;51.700;8.846;2023-12-28T04:37:19;7.70;99.90
50586;DHT22;36542;51.700;8.846;2023-12-28T04:39:45;7.70;99.90
50586;DHT22;36542;51.700;8.846;2023-12-28T04:42:11;7.70;99.90
50586;DHT22;36542;51.700;8.846;2023-12-28T04:44:39;7.70;99.90
50586;DHT22;36542;51.700;8.846;2023-12-28T04:47:05;7.70;99.90
50586;DHT22;36542;51.700;8.846;2023-12-28T04:49:31;7.60;99.90
50586;DHT22;36542;51.700;8.846;2023-12-28T04:51:56;7.60;99.90
50586;DHT22;36542;51.700;8.846;2023-12-28T04:54:22;7.70;99.90
50586;DHT22;36542;51.700;8.846;2023-12-28T04:56:48;7.70;99.90
50586;DHT22;36542;51.700;8.846;2023-12-28T04:59:14;7.60;99.90
50586;DHT22;36542;51.700;8.846;2023-12-28T05:01:43;7.70;99.90
50586;DHT22;36542;51.700;8.846;2023-12-28T05:04:09;7.70;99.90
50586;DHT22;36542;51.700;8.846;2023-12-28T05:06:34;7.70;99.90
50586;DHT22;36542;51.700;8.846;2023-12-28T05:09:00;7.60;99.90
50586;DHT22;36542;51.700;8.846;2023-12-28T05:11:26;7.60;99.90
50586;DHT22;36542;51.700;8.846;2023-12-28T05:13:53;7.60;99.90
50586;DHT22;36542;51.700;8.846;2023-12-28T05:16:19;7.70;99.90
50586;DHT22;36542;51.700;8.846;2023-12-28T05:18:45;7.60;99.90
50586;DHT22;36542;51.700;8.846;2023-12-28T05:21:12;7.70;99.90
50586;DHT22;36542;51.700;8.846;2023-12-28T05:23:37;7.70;99.90
50586;DHT22;36542;51.700;8.846;2023-12-28T05:26:03;7.80;99.90
50586;DHT22;36542;51.700;8.846;2023-12-28T05:28:28;7.80;99.90
50586;DHT22;36542;51.700;8.846;2023-12-28T05:30:54;7.70;99.90
50586;DHT22;36542;51.700;8.846;2023-12-28T05:33:19;7.70;99.90
50586;DHT22;36542;51.700;8.846;2023-12-28T05:35:45;7.70;99.90
50586;DHT22;36542;51.700;8.846;2023-12-28T05:38:10;7.70;99.90
50586;DHT22;36542;51.700;8.846;2023-12-28T05:40:36;7.80;99.90
50586;DHT22;36542;51.700;8.846;2023-12-28T05:43:01;7.70;99.90
50586;DHT22;36542;51.700;8.846;2023-12-28T05:45:27;7.70;99.90
50586;DHT22;36542;51.700;8.846;2023-12-28T05:47:52;7.70;99.90
50586;DHT22;36542;51.700;8.846;2023-12-28T05:50:18;7.70;99.90
50586;DHT22;36542;51.700;8.846;2023-12-28T05:52:43;7.60;99.90
50586;DHT22;36542;51.700;8.846;2023-12-28T05:55:08;7.60;99.90
50586;DHT22;36542;51.700;8.846;2023-12-28T05:57:34;7.60;99.90
50586;DHT22;36542;51.700;8.846;2023-12-28T05:59:59;7.70;99.90
50586;DHT22;36542;51.700;8.846;2023-12-28T06:02:25;7.70;99.90
50586;DHT22;36542;51.700;8.846;2023-12-28T06:04:50;7.80;99.90
50586;DHT22;36542;51.700;8.846;2023-12-28T06:07:16;7.90;99.90
50586;DHT22;36542;51.700;8.846;2023-12-28T06:09:41;8.00;99.90
50586;DHT22;36542;51.700;8.846;2023-12-28T06:12:07;8.00;99.90
50586;DHT22;36542;51.700;8.846;2023-12-28T06:14:33;8.00;99.90
50586;DHT22;36542;51.700;8.846;2023-12-28T06:16:58;8.10;99.90
50586;DHT22;36542;51.700;8.846;2023-12-28T06:19:24;8.10;99.90
50586;DHT22;36542;51.700;8.846;2023-12-28T06:21:49;8.10;99.90
50586;DHT22;36542;51.700;8.846;2023-12-28T06:24:15;8.00;99.90
50586;DHT22;36542;51.700;8.846;2023-12-28T06:26:44;8.10;99.90
50586;DHT22;36542;51.700;8.846;2023-12-28T06:29:10;8.10;99.90
50586;DHT22;36542;51.700;8.846;2023-12-28T06:31:36;8.20;99.90
50586;DHT22;36542;51.700;8.846;2023-12-28T06:34:03;8.20;99.90
50586;DHT22;36542;51.700;8.846;2023-12-28T06:36:28;8.30;99.90
50586;DHT22;36542;51.700;8.846;2023-12-28T06:38:54;8.40;99.90
50586;DHT22;36542;51.700;8.846;2023-12-28T06:41:20;8.30;99.90
50586;DHT22;36542;51.700;8.846;2023-12-28T06:43:45;8.20;99.90
50586;DHT22;36542;51.700;8.846;2023-12-28T06:46:10;8.20;99.90
50586;DHT22;36542;51.700;8.846;2023-12-28T06:48:36;8.20;99.90
50586;DHT22;36542;51.700;8.846;2023-12-28T06:51:05;8.10;99.90
50586;DHT22;36542;51.700;8.846;2023-12-28T06:53:31;8.10;99.90
50586;DHT22;36542;51.700;8.846;2023-12-28T06:55:56;8.10;99.90
50586;DHT22;36542;51.700;8.846;2023-12-28T06:58:22;8.30;99.90
50586;DHT22;36542;51.700;8.846;2023-12-28T07:00:47;8.20;99.90
50586;DHT22;36542;51.700;8.846;2023-12-28T07:03:13;8.30;99.90
50586;DHT22;36542;51.700;8.846;2023-12-28T07:05:38;8.20;99.90
50586;DHT22;36542;51.700;8.846;2023-12-28T07:08:04;8.20;99.90
50586;DHT22;36542;51.700;8.846;2023-12-28T07:10:29;8.20;99.90
50586;DHT22;36542;51.700;8.846;2023-12-28T07:12:55;8.20;99.90
50586;DHT22;36542;51.700;8.846;2023-12-28T07:15:20;8.20;99.90
50586;DHT22;36542;51.700;8.846;2023-12-28T07:17:46;8.20;99.90
50586;DHT22;36542;51.700;8.846;2023-12-28T07:20:11;8.20;99.90
50586;DHT22;36542;51.700;8.846;2023-12-28T07:22:37;8.20;99.90
50586;DHT22;36542;51.700;8.846;2023-12-28T07:25:05;8.20;99.90
50586;DHT22;36542;51.700;8.846;2023-12-28T07:27:31;8.30;99.90
50586;DHT22;36542;51.700;8.846;2023-12-28T07:29:56;8.20;99.90
50586;DHT22;36542;51.700;8.846;2023-12-28T07:32:21;8.30;99.90
50586;DHT22;36542;51.700;8.846;2023-12-28T07:34:54;8.20;99.90
50586;DHT22;36542;51.700;8.846;2023-12-28T07:37:20;8.20;99.90
50586;DHT22;36542;51.700;8.846;2023-12-28T07:39:46;8.30;99.90
50586;DHT22;36542;51.700;8.846;2023-12-28T07:42:12;8.40;99.90
50586;DHT22;36542;51.700;8.846;2023-12-28T07:44:37;8.30;99.90
50586;DHT22;36542;51.700;8.846;2023-12-28T07:47:03;8.30;99.90
50586;DHT22;36542;51.700;8.846;2023-12-28T07:49:30;8.30;99.90
50586;DHT22;36542;51.700;8.846;2023-12-28T07:51:56;8.30;99.90
50586;DHT22;36542;51.700;8.846;2023-12-28T07:54:22;8.30;99.90
50586;DHT22;36542;51.700;8.846;2023-12-28T07:56:47;8.30;99.90
50586;DHT22;36542;51.700;8.846;2023-12-28T07:59:13;8.30;99.90
50586;DHT22;36542;51.700;8.846;2023-12-28T08:01:38;8.30;99.90
50586;DHT22;36542;51.700;8.846;2023-12-28T08:04:04;8.40;99.90
50586;DHT22;36542;51.700;8.846;2023-12-28T08:06:30;8.30;99.90
50586;DHT22;36542;51.700;8.846;2023-12-28T08:08:59;8.20;99.90
50586;DHT22;36542;51.700;8.846;2023-12-28T08:11:29;8.20;99.90
50586;DHT22;36542;51.700;8.846;2023-12-28T08:13:54;8.10;99.90
50586;DHT22;36542;51.700;8.846;2023-12-28T08:16:20;8.10;99.90
50586;DHT22;36542;51.700;8.846;2023-12-28T08:18:46;8.00;99.90
50586;DHT22;36542;51.700;8.846;2023-12-28T08:21:12;8.00;99.90
50586;DHT22;36542;51.700;8.846;2023-12-28T08:23:37;8.00;99.90
50586;DHT22;36542;51.700;8.846;2023-12-28T08:26:03;8.10;99.90
50586;DHT22;36542;51.700;8.846;2023-12-28T08:28:28;8.10;99.90
50586;DHT22;36542;51.700;8.846;2023-12-28T08:30:55;8.10;99.90
50586;DHT22;36542;51.700;8.846;2023-12-28T08:33:21;8.20;99.90
50586;DHT22;36542;51.700;8.846;2023-12-28T08:35:46;8.10;99.90
50586;DHT22;36542;51.700;8.846;2023-12-28T08:38:12;8.20;99.90
50586;DHT22;36542;51.700;8.846;2023-12-28T08:40:38;8.20;99.90
50586;DHT22;36542;51.700;8.846;2023-12-28T08:43:03;8.20;99.90
50586;DHT22;36542;51.700;8.846;2023-12-28T08:45:29;8.30;99.90
50586;DHT22;36542;51.700;8.846;2023-12-28T08:47:54;8.30;99.90
50586;DHT22;36542;51.700;8.846;2023-12-28T08:50:20;8.40;99.90
50586;DHT22;36542;51.700;8.846;2023-12-28T08:52:45;8.30;99.90
50586;DHT22;36542;51.700;8.846;2023-12-28T08:55:11;8.40;99.90
50586;DHT22;36542;51.700;8.846;2023-12-28T08:57:36;8.50;99.90
50586;DHT22;36542;51.700;8.846;2023-12-28T09:00:04;8.50;99.90
50586;DHT22;36542;51.700;8.846;2023-12-28T09:02:30;8.50;99.90
50586;DHT22;36542;51.700;8.846;2023-12-28T09:04:57;8.60;99.90
50586;DHT22;36542;51.700;8.846;2023-12-28T09:07:23;8.60;99.90
50586;DHT22;36542;51.700;8.846;2023-12-28T09:09:49;8.60;99.90
50586;DHT22;36542;51.700;8.846;2023-12-28T09:12:14;8.70;99.90
50586;DHT22;36542;51.700;8.846;2023-12-28T09:14:40;8.80;99.90
50586;DHT22;36542;51.700;8.846;2023-12-28T09:17:05;8.80;99.90
50586;DHT22;36542;51.700;8.846;2023-12-28T09:19:31;8.90;99.90
50586;DHT22;36542;51.700;8.846;2023-12-28T09:21:56;8.90;99.90
50586;DHT22;36542;51.700;8.846;2023-12-28T09:24:22;9.00;99.90
50586;DHT22;36542;51.700;8.846;2023-12-28T09:26:47;9.00;99.90
50586;DHT22;36542;51.700;8.846;2023-12-28T09:29:13;9.10;99.90
50586;DHT22;36542;51.700;8.846;2023-12-28T09:31:39;9.20;99.90
50586;DHT22;36542;51.700;8.846;2023-12-28T09:34:05;9.20;99.90
50586;DHT22;36542;51.700;8.846;2023-12-28T09:36:30;9.20;99.90
50586;DHT22;36542;51.700;8.846;2023-12-28T09:38:56;9.20;99.90
50586;DHT22;36542;51.700;8.846;2023-12-28T09:41:27;9.30;99.90
50586;DHT22;36542;51.700;8.846;2023-12-28T09:44:13;9.30;99.90
50586;DHT22;36542;51.700;8.846;2023-12-28T09:46:43;9.30;99.90
50586;DHT22;36542;51.700;8.846;2023-12-28T09:49:10;9.30;99.90
50586;DHT22;36542;51.700;8.846;2023-12-28T09:51:36;9.30;99.90
50586;DHT22;36542;51.700;8.846;2023-12-28T09:54:03;9.30;99.90
50586;DHT22;36542;51.700;8.846;2023-12-28T09:56:29;9.40;99.90
50586;DHT22;36542;51.700;8.846;2023-12-28T09:58:57;9.50;99.90
50586;DHT22;36542;51.700;8.846;2023-12-28T10:01:22;9.50;99.90
50586;DHT22;36542;51.700;8.846;2023-12-28T10:03:48;9.70;99.90
50586;DHT22;36542;51.700;8.846;2023-12-28T10:06:13;9.60;99.90
50586;DHT22;36542;51.700;8.846;2023-12-28T10:08:48;9.70;99.90
50586;DHT22;36542;51.700;8.846;2023-12-28T10:11:18;9.60;99.90
50586;DHT22;36542;51.700;8.846;2023-12-28T10:13:44;9.60;99.90
50586;DHT22;36542;51.700;8.846;2023-12-28T10:16:11;9.60;99.90
50586;DHT22;36542;51.700;8.846;2023-12-28T10:18:40;9.60;99.90
50586;DHT22;36542;51.700;8.846;2023-12-28T10:21:07;9.60;99.90
50586;DHT22;36542;51.700;8.846;2023-12-28T10:23:33;9.70;99.90
50586;DHT22;36542;51.700;8.846;2023-12-28T10:25:59;9.80;99.90
50586;DHT22;36542;51.700;8.846;2023-12-28T10:28:25;9.80;99.90
50586;DHT22;36542;51.700;8.846;2023-12-28T10:30:56;9.80;99.90
50586;DHT22;36542;51.700;8.846;2023-12-28T10:33:22;9.80;99.90
50586;DHT22;36542;51.700;8.846;2023-12-28T10:35:50;9.90;99.90
50586;DHT22;36542;51.700;8.846;2023-12-28T10:38:16;9.90;99.90
50586;DHT22;36542;51.700;8.846;2023-12-28T10:40:46;9.90;99.90
50586;DHT22;36542;51.700;8.846;2023-12-28T10:43:16;9.80;99.90
50586;DHT22;36542;51.700;8.846;2023-12-28T10:45:42;9.90;99.90
50586;DHT22;36542;51.700;8.846;2023-12-28T10:48:11;9.80;99.90
50586;DHT22;36542;51.700;8.846;2023-12-28T10:50:42;9.90;99.90
50586;DHT22;36542;51.700;8.846;2023-12-28T10:53:38;9.80;99.90
50586;DHT22;36542;51.700;8.846;2023-12-28T10:59:30;10.00;99.90
50586;DHT22;36542;51.700;8.846;2023-12-28T11:01:59;10.10;99.90
50586;DHT22;36542;51.700;8.846;2023-12-28T11:04:48;10.10;99.90
50586;DHT22;36542;51.700;8.846;2023-12-28T11:07:15;10.10;99.90
50586;DHT22;36542;51.700;8.846;2023-12-28T11:09:42;10.10;99.90
50586;DHT22;36542;51.700;8.846;2023-12-28T11:12:09;10.20;99.90
50586;DHT22;36542;51.700;8.846;2023-12-28T11:17:12;10.30;99.90
50586;DHT22;36542;51.700;8.846;2023-12-28T11:19:40;10.50;99.90
50586;DHT22;36542;51.700;8.846;2023-12-28T11:22:07;10.50;99.90
50586;DHT22;36542;51.700;8.846;2023-12-28T11:24:33;10.70;99.90
50586;DHT22;36542;51.700;8.846;2023-12-28T11:27:01;10.70;99.90
50586;DHT22;36542;51.700;8.846;2023-12-28T11:29:32;10.60;99.90
50586;DHT22;36542;51.700;8.846;2023-12-28T11:31:58;10.50;99.90
50586;DHT22;36542;51.700;8.846;2023-12-28T11:34:31;10.40;99.90
50586;DHT22;36542;51.700;8.846;2023-12-28T11:37:01;10.40;99.90
50586;DHT22;36542;51.700;8.846;2023-12-28T11:39:33;10.30;99.90
50586;DHT22;36542;51.700;8.846;2023-12-28T11:42:02;10.30;99.90
50586;DHT22;36542;51.700;8.846;2023-12-28T11:44:37;10.30;99.90
50586;DHT22;36542;51.700;8.846;2023-12-28T11:47:31;10.20;99.90
50586;DHT22;36542;51.700;8.846;2023-12-28T11:50:06;10.20;99.90
50586;DHT22;36542;51.700;8.846;2023-12-28T11:52:32;10.10;99.90
50586;DHT22;36542;51.700;8.846;2023-12-28T11:54:59;10.10;99.90
50586;DHT22;36542;51.700;8.846;2023-12-28T11:57:25;10.10;99.90
50586;DHT22;36542;51.700;8.846;2023-12-28T11:59:56;10.10;99.90
50586;DHT22;36542;51.700;8.846;2023-12-28T12:02:22;10.10;99.90
50586;DHT22;36542;51.700;8.846;2023-12-28T12:04:49;10.20;99.90
50586;DHT22;36542;51.700;8.846;2023-12-28T12:07:15;10.30;99.90
50586;DHT22;36542;51.700;8.846;2023-12-28T12:09:40;10.40;99.90
50586;DHT22;36542;51.700;8.846;2023-12-28T12:12:07;10.30;99.90
50586;DHT22;36542;51.700;8.846;2023-12-28T12:14:34;10.30;99.90
50586;DHT22;36542;51.700;8.846;2023-12-28T12:17:00;10.40;99.90
50586;DHT22;36542;51.700;8.846;2023-12-28T12:19:26;10.30;99.90
50586;DHT22;36542;51.700;8.846;2023-12-28T12:21:53;10.30;99.90
50586;DHT22;36542;51.700;8.846;2023-12-28T12:24:19;10.30;99.90
50586;DHT22;36542;51.700;8.846;2023-12-28T12:26:46;10.30;99.90
50586;DHT22;36542;51.700;8.846;2023-12-28T12:29:11;10.30;99.90
50586;DHT22;36542;51.700;8.846;2023-12-28T12:31:37;10.30;99.90
50586;DHT22;36542;51.700;8.846;2023-12-28T12:34:07;10.30;99.90
50586;DHT22;36542;51.700;8.846;2023-12-28T12:36:33;10.20;99.90
50586;DHT22;36542;51.700;8.846;2023-12-28T12:38:59;10.30;99.90
50586;DHT22;36542;51.700;8.846;2023-12-28T12:41:26;10.30;99.90
50586;DHT22;36542;51.700;8.846;2023-12-28T12:43:51;10.30;99.90
50586;DHT22;36542;51.700;8.846;2023-12-28T12:46:17;10.30;99.90
50586;DHT22;36542;51.700;8.846;2023-12-28T12:48:53;10.30;99.90
50586;DHT22;36542;51.700;8.846;2023-12-28T12:51:19;10.30;99.90
50586;DHT22;36542;51.700;8.846;2023-12-28T12:53:44;10.30;99.90
50586;DHT22;36542;51.700;8.846;2023-12-28T12:56:10;10.30;99.90
50586;DHT22;36542;51.700;8.846;2023-12-28T12:58:35;10.30;99.90
50586;DHT22;36542;51.700;8.846;2023-12-28T13:01:01;10.30;99.90
50586;DHT22;36542;51.700;8.846;2023-12-28T13:03:29;10.30;99.90
50586;DHT22;36542;51.700;8.846;2023-12-28T13:05:56;10.40;99.90
50586;DHT22;36542;51.700;8.846;2023-12-28T13:08:22;10.30;99.90
50586;DHT22;36542;51.700;8.846;2023-12-28T13:10:47;10.30;99.90
50586;DHT22;36542;51.700;8.846;2023-12-28T13:13:15;10.30;99.90
50586;DHT22;36542;51.700;8.846;2023-12-28T13:15:40;10.30;99.90
50586;DHT22;36542;51.700;8.846;2023-12-28T13:18:06;10.30;99.90
50586;DHT22;36542;51.700;8.846;2023-12-28T13:20:31;10.30;99.90
50586;DHT22;36542;51.700;8.846;2023-12-28T13:22:57;10.30;99.90
50586;DHT22;36542;51.700;8.846;2023-12-28T13:25:22;10.20;99.90
50586;DHT22;36542;51.700;8.846;2023-12-28T13:27:48;10.20;99.90
50586;DHT22;36542;51.700;8.846;2023-12-28T13:30:14;10.20;99.90
50586;DHT22;36542;51.700;8.846;2023-12-28T13:32:39;10.20;99.90
50586;DHT22;36542;51.700;8.846;2023-12-28T13:35:05;10.20;99.90
50586;DHT22;36542;51.700;8.846;2023-12-28T13:37:31;10.30;99.90
50586;DHT22;36542;51.700;8.846;2023-12-28T13:39:57;10.30;99.90
50586;DHT22;36542;51.700;8.846;2023-12-28T13:42:22;10.30;99.90
50586;DHT22;36542;51.700;8.846;2023-12-28T13:44:48;10.30;99.90
50586;DHT22;36542;51.700;8.846;2023-12-28T13:47:14;10.30;99.90
50586;DHT22;36542;51.700;8.846;2023-12-28T13:49:39;10.30;99.90
50586;DHT22;36542;51.700;8.846;2023-12-28T13:52:05;10.30;99.90
50586;DHT22;36542;51.700;8.846;2023-12-28T13:54:30;10.30;99.90
50586;DHT22;36542;51.700;8.846;2023-12-28T13:56:56;10.30;99.90
50586;DHT22;36542;51.700;8.846;2023-12-28T13:59:24;10.30;99.90
50586;DHT22;36542;51.700;8.846;2023-12-28T14:01:49;10.30;99.90
50586;DHT22;36542;51.700;8.846;2023-12-28T14:04:15;10.30;99.90
50586;DHT22;36542;51.700;8.846;2023-12-28T14:06:40;10.30;99.90
50586;DHT22;36542;51.700;8.846;2023-12-28T14:09:06;10.30;99.90
50586;DHT22;36542;51.700;8.846;2023-12-28T14:11:31;10.30;99.90
50586;DHT22;36542;51.700;8.846;2023-12-28T14:13:57;10.20;99.90
50586;DHT22;36542;51.700;8.846;2023-12-28T14:16:22;10.20;99.90
50586;DHT22;36542;51.700;8.846;2023-12-28T14:18:48;10.10;99.90
50586;DHT22;36542;51.700;8.846;2023-12-28T14:21:14;10.10;99.90
50586;DHT22;36542;51.700;8.846;2023-12-28T14:23:40;10.10;99.90
50586;DHT22;36542;51.700;8.846;2023-12-28T14:26:12;10.00;99.90
50586;DHT22;36542;51.700;8.846;2023-12-28T14:28:39;10.00;99.90
50586;DHT22;36542;51.700;8.846;2023-12-28T14:31:05;10.00;99.90
50586;DHT22;36542;51.700;8.846;2023-12-28T14:33:31;9.90;99.90
50586;DHT22;36542;51.700;8.846;2023-12-28T14:35:57;9.80;99.90
50586;DHT22;36542;51.700;8.846;2023-12-28T14:38:23;9.80;99.90
50586;DHT22;36542;51.700;8.846;2023-12-28T14:40:48;9.80;99.90
50586;DHT22;36542;51.700;8.846;2023-12-28T14:43:17;9.70;99.90
50586;DHT22;36542;51.700;8.846;2023-12-28T14:45:42;9.60;99.90
50586;DHT22;36542;51.700;8.846;2023-12-28T14:48:09;9.60;99.90
50586;DHT22;36542;51.700;8.846;2023-12-28T14:50:35;9.60;99.90
50586;DHT22;36542;51.700;8.846;2023-12-28T14:53:01;9.50;99.90
50586;DHT22;36542;51.700;8.846;2023-12-28T14:55:26;9.40;99.90
50586;DHT22;36542;51.700;8.846;2023-12-28T14:57:53;9.30;99.90
50586;DHT22;36542;51.700;8.846;2023-12-28T15:00:18;9.40;99.90
50586;DHT22;36542;51.700;8.846;2023-12-28T15:02:44;9.40;99.90
50586;DHT22;36542;51.700;8.846;2023-12-28T15:05:10;9.30;99.90
50586;DHT22;36542;51.700;8.846;2023-12-28T15:07:38;9.20;99.90
50586;DHT22;36542;51.700;8.846;2023-12-28T15:10:04;9.20;99.90
50586;DHT22;36542;51.700;8.846;2023-12-28T15:12:29;9.20;99.90
50586;DHT22;36542;51.700;8.846;2023-12-28T15:14:55;9.20;99.90
50586;DHT22;36542;51.700;8.846;2023-12-28T15:17:21;9.10;99.90
50586;DHT22;36542;51.700;8.846;2023-12-28T15:19:48;9.10;99.90
50586;DHT22;36542;51.700;8.846;2023-12-28T15:22:14;9.10;99.90
50586;DHT22;36542;51.700;8.846;2023-12-28T15:24:40;9.00;99.90
50586;DHT22;36542;51.700;8.846;2023-12-28T15:27:05;9.00;99.90
50586;DHT22;36542;51.700;8.846;2023-12-28T15:29:33;9.00;99.90
50586;DHT22;36542;51.700;8.846;2023-12-28T15:31:58;9.10;99.90
50586;DHT22;36542;51.700;8.846;2023-12-28T15:34:24;9.10;99.90
50586;DHT22;36542;51.700;8.846;2023-12-28T15:36:49;8.90;99.90
50586;DHT22;36542;51.700;8.846;2023-12-28T15:39:14;8.90;99.90
50586;DHT22;36542;51.700;8.846;2023-12-28T15:41:40;9.00;99.90
50586;DHT22;36542;51.700;8.846;2023-12-28T15:44:06;9.00;99.90
50586;DHT22;36542;51.700;8.846;2023-12-28T15:46:32;9.00;99.90